createdAt,value
2023-01-29T00:02:46.708Z,100.00
2023-01-29T00:07:54.404Z,100.00
2023-01-29T00:12:59.480Z,100.00
2023-01-29T00:18:04.536Z,100.00
2023-01-29T00:23:12.057Z,100.00
2023-01-29T00:28:18.103Z,100.00
2023-01-29T00:33:23.109Z,100.00
2023-01-29T00:38:30.618Z,100.00
2023-01-29T00:43:47.971Z,100.00
2023-01-29T00:48:52.844Z,100.00
2023-01-29T00:54:00.669Z,100.00
2023-01-29T00:59:06.168Z,100.00
2023-01-29T01:04:13.729Z,100.00
2023-01-29T01:09:36.620Z,100.00
2023-01-29T01:14:43.319Z,100.00
2023-01-29T01:19:48.183Z,100.00
2023-01-29T01:24:55.714Z,100.00
2023-01-29T01:30:00.804Z,100.00
2023-01-29T01:35:05.783Z,100.00
2023-01-29T01:40:18.771Z,100.00
2023-01-29T01:45:29.211Z,100.00
2023-01-29T01:50:40.007Z,100.00
2023-01-29T01:55:51.953Z,100.00
2023-01-29T02:00:57.597Z,100.00
2023-01-29T02:06:16.113Z,100.00
2023-01-29T02:11:24.194Z,99.74
2023-01-29T02:16:29.192Z,99.98
2023-01-29T02:21:51.726Z,100.00
2023-01-29T02:27:11.862Z,100.00
2023-01-29T02:32:28.117Z,100.00
2023-01-29T02:37:39.169Z,100.00
2023-01-29T02:42:55.237Z,100.00
2023-01-29T02:48:05.030Z,100.00
2023-01-29T02:53:16.396Z,100.00
2023-01-29T02:58:28.007Z,100.00
2023-01-29T03:03:39.735Z,100.00
2023-01-29T03:08:52.440Z,100.00
2023-01-29T03:14:02.721Z,100.00
2023-01-29T03:19:16.398Z,100.00
2023-01-29T03:24:38.639Z,100.00
2023-01-29T03:29:57.859Z,100.00
2023-01-29T03:35:21.073Z,100.00
2023-01-29T03:40:26.320Z,100.00
2023-01-29T03:45:36.735Z,100.00
2023-01-29T03:50:55.145Z,100.00
2023-01-29T03:56:07.327Z,100.00
2023-01-29T04:01:17.835Z,100.00
2023-01-29T04:06:30.167Z,100.00
2023-01-29T04:11:46.082Z,100.00
2023-01-29T04:16:55.296Z,100.00
2023-01-29T04:22:16.726Z,100.00
2023-01-29T04:27:30.449Z,100.00
2023-01-29T04:32:49.914Z,100.00
2023-01-29T04:38:07.882Z,100.00
2023-01-29T04:43:19.196Z,100.00
2023-01-29T04:48:28.104Z,100.00
2023-01-29T04:53:44.261Z,100.00
2023-01-29T04:58:54.504Z,100.00
2023-01-29T05:04:01.276Z,100.00
2023-01-29T05:09:10.505Z,100.00
2023-01-29T05:14:18.276Z,100.00
2023-01-29T05:19:23.266Z,100.00
2023-01-29T05:24:30.905Z,100.00
2023-01-29T05:29:36.022Z,100.00
2023-01-29T05:34:41.050Z,100.00
2023-01-29T05:39:48.738Z,100.00
2023-01-29T05:44:53.625Z,100.00
2023-01-29T05:49:58.808Z,100.00
2023-01-29T05:55:06.635Z,100.00
2023-01-29T06:00:13.367Z,100.00
2023-01-29T06:05:18.609Z,100.00
2023-01-29T06:10:26.175Z,100.00
2023-01-29T06:15:31.572Z,100.00
2023-01-29T06:20:36.559Z,100.00
2023-01-29T06:25:44.157Z,100.00
2023-01-29T06:30:49.173Z,100.00
2023-01-29T06:35:59.010Z,100.00
2023-01-29T06:41:12.228Z,100.00
2023-01-29T06:46:17.298Z,100.00
2023-01-29T06:51:23.072Z,100.00
2023-01-29T06:56:30.577Z,100.00
2023-01-29T07:01:36.957Z,99.75
2023-01-29T07:06:42.809Z,99.32
2023-01-29T07:11:50.508Z,98.41
2023-01-29T07:16:55.480Z,98.06
2023-01-29T07:22:02.632Z,97.93
2023-01-29T07:27:10.353Z,100.00
2023-01-29T07:32:16.130Z,100.00
2023-01-29T07:37:21.180Z,98.53
2023-01-29T07:42:28.793Z,97.70
2023-01-29T07:47:33.862Z,97.72
2023-01-29T07:52:39.099Z,99.42
2023-01-29T07:57:48.374Z,97.88
2023-01-29T08:02:53.521Z,98.54
2023-01-29T08:08:06.601Z,99.18
2023-01-29T08:13:14.494Z,97.97
2023-01-29T08:18:19.726Z,96.66
2023-01-29T08:23:24.711Z,98.32
2023-01-29T08:28:32.330Z,98.79
2023-01-29T08:33:39.352Z,98.24
2023-01-29T08:38:45.453Z,100.00
2023-01-29T08:43:53.409Z,98.26
2023-01-29T08:48:58.886Z,100.00
2023-01-29T08:54:03.858Z,99.65
2023-01-29T08:59:13.009Z,100.00
2023-01-29T09:04:18.006Z,99.27
2023-01-29T09:09:23.048Z,97.90
2023-01-29T09:14:30.683Z,97.28
2023-01-29T09:19:35.656Z,98.78
2023-01-29T09:24:43.200Z,100.00
2023-01-29T09:29:50.786Z,98.34
2023-01-29T09:34:56.104Z,99.76
2023-01-29T09:40:01.091Z,98.01
2023-01-29T09:45:16.166Z,98.88
2023-01-29T09:50:41.096Z,98.75
2023-01-29T09:55:52.726Z,98.15
2023-01-29T10:01:09.344Z,97.71
2023-01-29T10:06:28.334Z,97.51
2023-01-29T10:11:42.281Z,99.36
2023-01-29T10:17:02.584Z,99.50
2023-01-29T10:22:22.889Z,99.46
2023-01-29T10:27:35.157Z,99.47
2023-01-29T10:32:46.978Z,97.58
2023-01-29T10:37:55.988Z,99.24
2023-01-29T10:43:06.969Z,98.33
2023-01-29T10:48:44.052Z,98.29
2023-01-29T10:54:01.504Z,97.92
2023-01-29T10:59:11.999Z,98.72
2023-01-29T11:04:19.892Z,98.30
2023-01-29T11:09:34.568Z,99.02
2023-01-29T11:14:47.845Z,98.99
2023-01-29T11:19:57.844Z,99.59
2023-01-29T11:25:19.241Z,99.34
2023-01-29T11:30:27.332Z,98.26
2023-01-29T11:35:36.557Z,99.29
2023-01-29T11:40:43.465Z,99.32
2023-01-29T11:45:49.878Z,97.77
2023-01-29T11:51:00.815Z,98.99
2023-01-29T11:56:25.400Z,100.00
2023-01-29T12:01:36.230Z,99.16
2023-01-29T12:06:48.931Z,98.78
2023-01-29T12:11:54.432Z,98.98
2023-01-29T12:17:10.546Z,98.70
2023-01-29T12:22:23.435Z,97.38
2023-01-29T12:27:36.736Z,97.58
2023-01-29T12:32:48.550Z,97.63
2023-01-29T12:38:05.398Z,98.21
2023-01-29T12:43:19.409Z,98.04
2023-01-29T12:48:29.021Z,98.51
2023-01-29T12:53:43.970Z,98.16
2023-01-29T12:58:53.649Z,99.83
2023-01-29T13:04:02.527Z,97.26
2023-01-29T13:09:20.283Z,98.01
2023-01-29T13:14:29.311Z,98.59
2023-01-29T13:19:39.415Z,98.57
2023-01-29T13:25:02.387Z,99.69
2023-01-29T13:30:10.513Z,98.01
2023-01-29T13:35:20.130Z,98.56
2023-01-29T13:40:30.803Z,98.59
2023-01-29T13:45:39.617Z,99.23
2023-01-29T13:50:46.609Z,98.93
2023-01-29T13:55:54.217Z,100.00
2023-01-29T14:01:02.976Z,99.99
2023-01-29T14:06:08.808Z,100.00
2023-01-29T14:11:38.762Z,100.00
2023-01-29T14:16:45.059Z,100.00
2023-01-29T14:21:53.796Z,100.00
2023-01-29T14:27:05.700Z,100.00
2023-01-29T14:32:22.401Z,100.00
2023-01-29T14:37:35.019Z,100.00
2023-01-29T14:42:52.965Z,100.00
2023-01-29T14:48:06.353Z,100.00
2023-01-29T14:53:23.194Z,100.00
2023-01-29T14:58:45.385Z,100.00
2023-01-29T15:03:56.745Z,100.00
2023-01-29T15:09:14.068Z,100.00
2023-01-29T15:14:35.064Z,100.00
2023-01-29T15:19:45.482Z,100.00
2023-01-29T15:25:07.483Z,100.00
2023-01-29T15:30:21.899Z,100.00
2023-01-29T15:35:32.449Z,100.00
2023-01-29T15:40:38.608Z,100.00
2023-01-29T15:45:48.640Z,100.00
2023-01-29T15:51:00.159Z,100.00
2023-01-29T15:56:11.812Z,100.00
2023-01-29T16:01:20.268Z,100.00
2023-01-29T16:06:27.386Z,100.00
2023-01-29T16:11:32.707Z,100.00
2023-01-29T16:16:40.450Z,100.00
2023-01-29T16:21:51.068Z,100.00
2023-01-29T16:27:09.618Z,100.00
2023-01-29T16:32:18.446Z,100.00
2023-01-29T16:37:31.182Z,100.00
2023-01-29T16:42:39.175Z,100.00
2023-01-29T16:47:48.485Z,100.00
2023-01-29T16:53:01.537Z,100.00
2023-01-29T16:58:12.879Z,100.00
2023-01-29T17:03:22.663Z,100.00
2023-01-29T17:08:31.748Z,100.00
2023-01-29T17:13:42.834Z,100.00
2023-01-29T17:18:53.073Z,100.00
2023-01-29T17:24:06.636Z,100.00
2023-01-29T17:29:17.011Z,100.00
2023-01-29T17:34:24.763Z,100.00
2023-01-29T17:39:30.081Z,100.00
2023-01-29T17:44:35.113Z,100.00
2023-01-29T17:49:42.723Z,100.00
2023-01-29T17:54:50.242Z,100.00
2023-01-29T17:59:57.363Z,100.00
2023-01-29T18:05:05.457Z,100.00
2023-01-29T18:10:16.874Z,100.00
2023-01-29T18:15:23.339Z,100.00
2023-01-29T18:20:32.085Z,100.00
2023-01-29T18:25:38.166Z,100.00
2023-01-29T18:30:45.692Z,100.00
2023-01-29T18:35:58.301Z,100.00
2023-01-29T18:41:10.676Z,100.00
2023-01-29T18:46:16.005Z,100.00
2023-01-29T18:51:25.081Z,100.00
2023-01-29T18:56:30.251Z,100.00
2023-01-29T19:01:39.558Z,100.00
2023-01-29T19:06:47.989Z,100.00
2023-01-29T19:11:55.388Z,100.00
2023-01-29T19:17:05.124Z,100.00
2023-01-29T19:22:13.285Z,100.00
2023-01-29T19:27:20.268Z,100.00
2023-01-29T19:32:25.865Z,100.00
2023-01-29T19:37:34.412Z,100.00
2023-01-29T19:42:41.584Z,100.00
2023-01-29T19:47:48.132Z,100.00
2023-01-29T19:52:59.482Z,100.00
2023-01-29T19:58:06.908Z,100.00
2023-01-29T20:03:15.730Z,100.00
2023-01-29T20:08:25.069Z,100.00
2023-01-29T20:13:31.192Z,100.00
2023-01-29T20:18:39.988Z,100.00
2023-01-29T20:23:53.142Z,100.00
2023-01-29T20:28:58.821Z,100.00
2023-01-29T20:34:05.704Z,100.00
2023-01-29T20:39:14.465Z,100.00
2023-01-29T20:44:20.165Z,99.71
2023-01-29T20:49:31.174Z,100.00
2023-01-29T20:54:40.466Z,100.00
2023-01-29T20:59:46.255Z,100.00
2023-01-29T21:04:56.488Z,100.00
2023-01-29T21:10:05.019Z,100.00
2023-01-29T21:15:12.239Z,100.00
2023-01-29T21:20:20.350Z,100.00
2023-01-29T21:25:28.373Z,100.00
2023-01-29T21:30:36.653Z,100.00
2023-01-29T21:35:41.861Z,100.00
2023-01-29T21:40:49.565Z,100.00
2023-01-29T21:45:59.182Z,99.54
2023-01-29T21:51:07.229Z,99.73
2023-01-29T21:56:19.855Z,99.85
2023-01-29T22:01:38.198Z,98.22
2023-01-29T22:06:43.990Z,98.29
2023-01-29T22:11:51.570Z,97.82
2023-01-29T22:16:56.540Z,97.91
2023-01-29T22:22:01.606Z,97.85
2023-01-29T22:27:09.650Z,96.61
2023-01-29T22:32:14.685Z,97.81
2023-01-29T22:37:19.654Z,97.60
2023-01-29T22:42:27.957Z,97.29
2023-01-29T22:47:35.207Z,96.96
2023-01-29T22:52:42.870Z,97.02
2023-01-29T22:57:51.666Z,96.90
2023-01-29T23:02:56.691Z,96.10
2023-01-29T23:08:01.758Z,96.07
2023-01-29T23:13:09.342Z,95.88
2023-01-29T23:18:14.387Z,95.98
2023-01-29T23:23:19.367Z,95.94
2023-01-29T23:28:27.578Z,96.23
2023-01-29T23:33:32.507Z,96.48
2023-01-29T23:38:39.103Z,96.91
2023-01-29T23:43:46.724Z,97.32
2023-01-29T23:48:51.694Z,96.49
2023-01-29T23:53:57.026Z,97.18
2023-01-29T23:59:04.616Z,96.74
